Time;durP1;ratioP1;P1;durP2;ratioP2;P2;SDS_P1;SDS_P2;PMS_P1;PMS_P2;Temp;Humidity;BMP_temperature;BMP_pressure;BME280_temperature;BME280_humidity;BME280_pressure;Samples;Min_cycle;Max_cycle;Signal;HPM_P1;HPM_P2
2022/05/20 00:00:17;;;;;;;12.48;8.93;;;;;;;;;;4975806;28;20046;-74
2022/05/20 00:02:43;;;;;;;17.35;8.68;;;;;;;;;;4975571;28;20502;-74
2022/05/20 00:05:09;;;;;;;11.60;8.02;;;;;;;;;;4975824;28;20070;-74
2022/05/20 00:07:35;;;;;;;16.30;8.40;;;;;;;;;;4976190;28;20063;-74
2022/05/20 00:10:02;;;;;;;12.05;8.05;;;;;;;;;;4976064;28;20047;-74
2022/05/20 00:12:28;;;;;;;14.15;7.55;;;;;;;;;;4975876;28;20052;-74
2022/05/20 00:14:54;;;;;;;15.45;8.18;;;;;;;;;;4975731;28;20039;-74
2022/05/20 00:17:20;;;;;;;14.98;8.00;;;;;;;;;;4975983;28;20051;-74
2022/05/20 00:19:46;;;;;;;10.38;7.53;;;;;;;;;;4975677;28;20042;-74
2022/05/20 00:22:12;;;;;;;17.42;7.20;;;;;;;;;;4975806;28;20046;-74
2022/05/20 00:25:45;;;;;;;15.02;7.53;;;;;;;;;;4976190;28;20512;-74
2022/05/20 00:27:24;;;;;;;12.25;7.72;;;;;;;;;;4975329;28;20371;-73
2022/05/20 00:29:51;;;;;;;15.20;7.10;;;;;;;;;;4975538;28;20521;-74
2022/05/20 00:32:17;;;;;;;11.90;6.57;;;;;;;;;;4975543;28;20479;-73
2022/05/20 00:34:43;;;;;;;9.80;6.75;;;;;;;;;;4975837;28;20043;-74
2022/05/20 00:37:09;;;;;;;12.77;7.18;;;;;;;;;;4975851;28;20102;-74
2022/05/20 00:39:35;;;;;;;12.40;7.40;;;;;;;;;;4958436;28;20358;-74
2022/05/20 00:42:09;;;;;;;11.05;6.72;;;;;;;;;;4975954;28;20047;-74
2022/05/20 00:44:35;;;;;;;14.50;7.57;;;;;;;;;;4976107;28;20090;-74
2022/05/20 00:47:01;;;;;;;11.20;7.75;;;;;;;;;;4975913;28;20090;-74
2022/05/20 00:49:29;;;;;;;12.27;7.38;;;;;;;;;;4978953;28;20181;-74
2022/05/20 00:51:55;;;;;;;10.88;7.63;;;;;;;;;;4979269;28;20082;-74
2022/05/20 00:54:24;;;;;;;13.27;7.25;;;;;;;;;;4979185;28;20117;-74
2022/05/20 00:57:04;;;;;;;12.77;7.45;;;;;;;;;;4979857;28;20057;-74
2022/05/20 00:59:31;;;;;;;8.25;7.10;;;;;;;;;;4979459;28;20103;-74
2022/05/20 01:02:01;;;;;;;11.63;7.68;;;;;;;;;;4979672;28;20046;-74
2022/05/20 01:04:27;;;;;;;9.15;7.07;;;;;;;;;;4979466;28;20034;-74
2022/05/20 01:06:53;;;;;;;13.88;7.43;;;;;;;;;;4979196;28;20069;-74
2022/05/20 01:09:19;;;;;;;14.77;7.25;;;;;;;;;;4978888;28;20046;-74
2022/05/20 01:11:46;;;;;;;14.25;7.63;;;;;;;;;;4979233;28;20077;-74
2022/05/20 01:14:19;;;;;;;8.57;7.03;;;;;;;;;;4978853;28;20043;-74
2022/05/20 01:16:45;;;;;;;16.73;9.25;;;;;;;;;;4979028;28;20054;-74
2022/05/20 01:19:15;;;;;;;14.82;7.10;;;;;;;;;;4978764;28;20043;-74
2022/05/20 01:21:41;;;;;;;12.32;7.03;;;;;;;;;;4978463;28;20059;-74
2022/05/20 01:24:07;;;;;;;13.27;7.30;;;;;;;;;;4978422;28;20550;-74
2022/05/20 01:26:33;;;;;;;14.00;7.32;;;;;;;;;;4961477;28;20410;-74
2022/05/20 01:28:59;;;;;;;13.98;8.07;;;;;;;;;;4978829;28;20042;-73
2022/05/20 01:31:25;;;;;;;14.05;7.38;;;;;;;;;;4978245;28;20050;-74
2022/05/20 01:33:52;;;;;;;9.45;7.40;;;;;;;;;;4978270;28;20043;-74
2022/05/20 01:36:20;;;;;;;19.60;7.20;;;;;;;;;;4979215;28;20118;-74
2022/05/20 01:38:47;;;;;;;12.13;7.25;;;;;;;;;;4978964;28;20042;-74
2022/05/20 01:41:14;;;;;;;16.63;7.28;;;;;;;;;;4978384;28;20046;-74
2022/05/20 01:43:41;;;;;;;14.55;7.30;;;;;;;;;;4978605;28;20043;-74
2022/05/20 01:46:25;;;;;;;11.00;7.50;;;;;;;;;;4978578;28;20046;-74
2022/05/20 01:49:12;;;;;;;11.23;7.03;;;;;;;;;;4978577;28;20042;-74
2022/05/20 01:51:47;;;;;;;9.95;7.22;;;;;;;;;;4978453;28;20050;-74
2022/05/20 01:54:17;;;;;;;15.85;7.80;;;;;;;;;;4978027;28;20037;-74
2022/05/20 01:56:55;;;;;;;10.93;7.57;;;;;;;;;;4978353;28;20046;-74
2022/05/20 01:59:25;;;;;;;16.63;7.78;;;;;;;;;;4977953;28;20042;-74
2022/05/20 02:01:55;;;;;;;8.57;6.80;;;;;;;;;;4978093;28;20043;-73
2022/05/20 02:04:24;;;;;;;14.43;8.20;;;;;;;;;;4978585;28;20074;-74
2022/05/20 02:07:00;;;;;;;11.77;8.20;;;;;;;;;;4978006;28;20130;-74
2022/05/20 02:09:30;;;;;;;11.85;7.63;;;;;;;;;;4978314;28;20046;-74
2022/05/20 02:11:56;;;;;;;12.93;7.95;;;;;;;;;;4978100;28;20047;-73
2022/05/20 02:14:42;;;;;;;12.55;7.75;;;;;;;;;;4978112;28;20089;-74
2022/05/20 02:17:11;;;;;;;18.88;8.02;;;;;;;;;;4977723;28;20406;-74
2022/05/20 02:19:44;;;;;;;14.18;7.75;;;;;;;;;;4977942;28;20046;-74
2022/05/20 02:22:16;;;;;;;12.60;8.15;;;;;;;;;;4977123;28;20046;-74
2022/05/20 02:24:42;;;;;;;12.57;8.43;;;;;;;;;;4977616;28;20068;-74
2022/05/20 02:27:13;;;;;;;10.93;7.78;;;;;;;;;;4977737;28;20050;-73
2022/05/20 02:29:51;;;;;;;12.93;8.38;;;;;;;;;;4977819;28;20126;-74
2022/05/20 02:32:31;;;;;;;14.35;7.80;;;;;;;;;;4977973;28;20043;-73
2022/05/20 02:34:58;;;;;;;14.20;8.05;;;;;;;;;;4978288;28;20050;-74
2022/05/20 02:37:29;;;;;;;14.80;7.53;;;;;;;;;;4977703;28;20478;-74
2022/05/20 02:39:55;;;;;;;;;;;;;;;;;;4978018;28;20050;-73
2022/05/20 02:42:21;;;;;;;12.43;7.53;;;;;;;;;;4977298;28;19965;-74
2022/05/20 02:44:47;;;;;;;10.70;7.65;;;;;;;;;;4977536;28;20042;-74
2022/05/20 02:47:13;;;;;;;11.35;7.25;;;;;;;;;;4977371;28;20043;-74
2022/05/20 02:49:39;;;;;;;11.40;7.78;;;;;;;;;;4977380;28;20046;-74
2022/05/20 02:52:06;;;;;;;12.57;8.27;;;;;;;;;;4976904;28;20513;-74
2022/05/20 02:54:32;;;;;;;13.07;7.80;;;;;;;;;;4977357;28;20035;-73
2022/05/20 02:56:59;;;;;;;12.82;8.38;;;;;;;;;;4977654;28;20046;-74
2022/05/20 03:04:54;;;;;;;15.93;8.85;;;;;;;;;;4976659;28;20046;-74
2022/05/20 03:07:21;;;;;;;13.93;8.60;;;;;;;;;;4976747;28;20522;-73
2022/05/20 03:09:47;;;;;;;10.77;8.77;;;;;;;;;;4976654;28;20042;-73
2022/05/20 03:12:14;;;;;;;12.05;8.93;;;;;;;;;;4977244;28;20137;-74
2022/05/20 03:14:41;;;;;;;16.25;8.48;;;;;;;;;;4976853;28;20035;-74
2022/05/20 03:17:07;;;;;;;11.15;7.93;;;;;;;;;;4977091;28;20053;-73
2022/05/20 03:19:33;;;;;;;15.77;7.65;;;;;;;;;;4977357;28;20047;-74
2022/05/20 03:22:04;;;;;;;15.20;8.38;;;;;;;;;;4976351;28;20533;-74
2022/05/20 03:24:30;;;;;;;13.23;9.77;;;;;;;;;;4976665;28;20046;-73
2022/05/20 03:26:57;;;;;;;15.68;9.40;;;;;;;;;;4977084;28;20043;-74
2022/05/20 03:29:23;;;;;;;14.27;9.00;;;;;;;;;;4977189;28;20153;-74
2022/05/20 03:31:50;;;;;;;12.30;7.88;;;;;;;;;;4976655;28;20101;-74
2022/05/20 03:34:17;;;;;;;11.52;8.00;;;;;;;;;;4976350;28;20031;-73
2022/05/20 03:36:45;;;;;;;10.18;7.97;;;;;;;;;;4976027;28;20110;-74
2022/05/20 03:39:12;;;;;;;12.40;8.48;;;;;;;;;;4976238;28;20054;-74
2022/05/20 03:41:38;;;;;;;12.05;8.48;;;;;;;;;;4976347;28;20097;-74
2022/05/20 03:44:06;;;;;;;16.33;9.20;;;;;;;;;;4958987;28;20107;-74
2022/05/20 03:46:33;;;;;;;13.32;9.15;;;;;;;;;;4976394;28;20067;-74
2022/05/20 03:49:00;;;;;;;16.20;8.45;;;;;;;;;;4976299;28;20050;-74
2022/05/20 03:51:26;;;;;;;13.05;7.93;;;;;;;;;;4976262;28;20134;-74
2022/05/20 03:53:52;;;;;;;12.52;7.75;;;;;;;;;;4976867;28;20039;-74
2022/05/20 03:56:18;;;;;;;12.45;7.43;;;;;;;;;;4976163;28;20449;-74
2022/05/20 03:58:45;;;;;;;11.40;7.97;;;;;;;;;;4976520;28;20117;-73
2022/05/20 04:03:57;;;;;;;11.30;7.50;;;;;;;;;;4975675;28;20046;-74
2022/05/20 04:06:24;;;;;;;8.50;7.35;;;;;;;;;;4974817;28;20058;-74
2022/05/20 04:08:50;;;;;;;8.77;7.72;;;;;;;;;;4975771;28;20038;-74
2022/05/20 04:11:16;;;;;;;14.18;9.30;;;;;;;;;;4975750;28;20042;-74
2022/05/20 04:13:43;;;;;;;9.90;7.93;;;;;;;;;;4976022;28;20117;-73
2022/05/20 04:16:10;;;;;;;9.52;7.72;;;;;;;;;;4975966;28;20059;-74
2022/05/20 04:18:38;;;;;;;8.55;6.95;;;;;;;;;;4975644;28;20117;-74
2022/05/20 04:21:04;;;;;;;10.05;7.53;;;;;;;;;;4976163;28;20500;-74
2022/05/20 04:23:31;;;;;;;12.57;7.28;;;;;;;;;;4975299;28;20123;-74
2022/05/20 04:25:57;;;;;;;10.30;6.70;;;;;;;;;;4975961;28;20553;-74
2022/05/20 04:28:23;;;;;;;11.57;6.47;;;;;;;;;;4975667;28;20042;-74
2022/05/20 04:30:51;;;;;;;12.00;6.88;;;;;;;;;;4975560;28;20054;-74
2022/05/20 04:33:17;;;;;;;9.98;7.13;;;;;;;;;;4975558;28;20038;-74
2022/05/20 04:35:43;;;;;;;9.43;6.50;;;;;;;;;;4975678;28;20074;-74
2022/05/20 04:38:10;;;;;;;9.95;6.47;;;;;;;;;;4975360;28;20043;-74
2022/05/20 04:40:36;;;;;;;10.85;6.97;;;;;;;;;;4975020;28;20051;-73
2022/05/20 04:48:33;;;;;;;10.52;6.55;;;;;;;;;;4934676;28;20042;-73
2022/05/20 04:50:59;;;;;;;10.43;6.85;;;;;;;;;;4975242;28;20049;-73
2022/05/20 04:56:11;;;;;;;11.27;6.60;;;;;;;;;;4973201;28;20092;-73
2022/05/20 04:58:38;;;;;;;8.38;5.75;;;;;;;;;;4973185;28;20093;-74
2022/05/20 05:01:04;;;;;;;11.15;6.55;;;;;;;;;;4972924;28;20037;-73
2022/05/20 05:03:30;;;;;;;11.35;6.15;;;;;;;;;;4973026;28;20057;-73
2022/05/20 05:05:57;;;;;;;9.48;5.75;;;;;;;;;;4955194;28;20401;-73
2022/05/20 05:08:23;;;;;;;10.35;5.88;;;;;;;;;;4973040;28;20050;-73
2022/05/20 05:10:49;;;;;;;8.93;5.80;;;;;;;;;;4974413;28;20133;-73
2022/05/20 05:13:16;;;;;;;9.32;5.10;;;;;;;;;;4981603;28;20476;-72
2022/05/20 05:15:43;;;;;;;7.50;5.93;;;;;;;;;;4990572;28;20050;-73
2022/05/20 05:18:13;;;;;;;11.05;5.50;;;;;;;;;;4978751;28;20038;-73
2022/05/20 05:20:43;;;;;;;8.80;5.10;;;;;;;;;;4957778;28;20058;-73
2022/05/20 05:23:09;;;;;;;6.07;4.80;;;;;;;;;;4974535;28;20031;-73
2022/05/20 05:25:36;;;;;;;8.40;5.05;;;;;;;;;;4975078;28;20057;-73
2022/05/20 05:28:02;;;;;;;9.45;4.38;;;;;;;;;;4974434;28;20035;-73
2022/05/20 05:30:28;;;;;;;5.07;4.00;;;;;;;;;;4976853;28;20120;-73
2022/05/20 05:32:55;;;;;;;8.60;5.20;;;;;;;;;;4975200;28;20057;-73
2022/05/20 05:35:23;;;;;;;6.88;4.40;;;;;;;;;;4976546;28;20482;-73
2022/05/20 05:37:49;;;;;;;5.78;4.20;;;;;;;;;;4972041;28;20043;-73
2022/05/20 05:40:17;;;;;;;9.27;4.30;;;;;;;;;;4977238;28;20418;-74
2022/05/20 05:42:43;;;;;;;6.50;3.63;;;;;;;;;;4977812;28;20046;-72
2022/05/20 05:45:11;;;;;;;7.05;4.22;;;;;;;;;;4977886;28;20039;-74
2022/05/20 05:47:37;;;;;;;7.75;3.88;;;;;;;;;;4971194;28;20043;-73
2022/05/20 05:50:04;;;;;;;7.15;3.55;;;;;;;;;;4974423;28;20121;-73
2022/05/20 05:52:30;;;;;;;7.90;4.03;;;;;;;;;;4976440;28;20051;-73
2022/05/20 05:54:56;;;;;;;6.53;3.80;;;;;;;;;;4976808;28;20043;-73
2022/05/20 05:57:22;;;;;;;8.23;4.10;;;;;;;;;;4970230;28;20066;-74
2022/05/20 05:59:49;;;;;;;9.95;3.63;;;;;;;;;;4980776;28;20050;-74
2022/05/20 06:02:15;;;;;;;5.53;3.47;;;;;;;;;;4976557;28;20121;-74
2022/05/20 06:04:42;;;;;;;6.25;3.38;;;;;;;;;;4976610;28;20129;-74
2022/05/20 06:07:08;;;;;;;9.45;3.53;;;;;;;;;;4972380;28;20059;-75
2022/05/20 06:09:34;;;;;;;8.73;3.30;;;;;;;;;;4958727;29;20039;-74
2022/05/20 06:12:01;;;;;;;5.47;2.85;;;;;;;;;;4968917;28;20074;-74
2022/05/20 06:14:27;;;;;;;4.20;3.15;;;;;;;;;;4978628;28;20530;-75
2022/05/20 06:16:54;;;;;;;8.85;3.50;;;;;;;;;;4977946;28;20129;-75
2022/05/20 06:19:20;;;;;;;6.32;2.88;;;;;;;;;;4977778;28;20130;-75
2022/05/20 06:21:46;;;;;;;7.53;3.08;;;;;;;;;;4971066;28;20529;-75
2022/05/20 06:24:12;;;;;;;10.15;2.80;;;;;;;;;;4971688;28;20114;-75
2022/05/20 06:26:41;;;;;;;6.90;2.85;;;;;;;;;;4977198;28;20674;-75
2022/05/20 06:29:08;;;;;;;7.28;3.10;;;;;;;;;;4973878;28;20043;-75
2022/05/20 06:31:34;;;;;;;3.25;2.10;;;;;;;;;;4959298;28;20047;-75
2022/05/20 06:34:00;;;;;;;5.05;2.55;;;;;;;;;;4958667;29;20043;-74
2022/05/20 06:40:13;;;;;;;5.50;2.60;;;;;;;;;;4968396;28;20121;-74
2022/05/20 06:42:45;;;;;;;6.03;3.30;;;;;;;;;;4945476;28;20054;-74
2022/05/20 06:45:12;;;;;;;9.57;3.00;;;;;;;;;;4975583;28;20050;-74
2022/05/20 06:47:39;;;;;;;7.00;2.25;;;;;;;;;;4975515;28;21536;-75
2022/05/20 06:50:06;;;;;;;11.32;3.10;;;;;;;;;;4974824;28;20140;-75
2022/05/20 06:52:32;;;;;;;4.85;2.40;;;;;;;;;;4974639;28;20066;-75
2022/05/20 06:54:58;;;;;;;10.60;2.72;;;;;;;;;;4972529;28;20133;-74
2022/05/20 06:57:25;;;;;;;5.10;2.70;;;;;;;;;;4959217;28;20491;-71
2022/05/20 06:59:51;;;;;;;10.30;2.60;;;;;;;;;;4962034;28;20053;-72
2022/05/20 07:02:18;;;;;;;5.03;2.50;;;;;;;;;;4977141;28;20030;-74
2022/05/20 07:04:44;;;;;;;5.82;2.45;;;;;;;;;;4992100;28;20074;-74
2022/05/20 07:07:11;;;;;;;8.45;2.92;;;;;;;;;;4977238;28;20070;-75
2022/05/20 07:09:37;;;;;;;6.63;2.47;;;;;;;;;;4976754;28;20050;-74
2022/05/20 07:12:04;;;;;;;5.63;2.50;;;;;;;;;;4976819;28;20042;-72
2022/05/20 07:14:30;;;;;;;38.17;5.80;;;;;;;;;;4977555;28;20034;-74
2022/05/20 07:16:56;;;;;;;10.88;2.97;;;;;;;;;;4976986;28;20498;-74
2022/05/20 07:19:23;;;;;;;91.13;9.95;;;;;;;;;;4976587;28;20409;-74
2022/05/20 07:21:49;;;;;;;43.17;5.43;;;;;;;;;;4976714;28;20105;-74
2022/05/20 07:24:16;;;;;;;185.45;21.40;;;;;;;;;;4976822;28;20042;-74
2022/05/20 07:26:43;;;;;;;31.90;5.35;;;;;;;;;;4977143;28;20038;-74
2022/05/20 07:29:09;;;;;;;59.65;8.18;;;;;;;;;;4976887;28;20049;-75
2022/05/20 07:31:35;;;;;;;9.85;2.80;;;;;;;;;;4959293;28;20050;-74
2022/05/20 07:34:02;;;;;;;6.15;2.38;;;;;;;;;;4976299;28;20042;-74
2022/05/20 07:36:28;;;;;;;10.93;2.78;;;;;;;;;;4976540;28;20105;-74
2022/05/20 07:38:54;;;;;;;9.13;3.47;;;;;;;;;;4976567;28;20043;-73
2022/05/20 07:41:23;;;;;;;7.50;2.70;;;;;;;;;;4976966;28;20069;-76
2022/05/20 07:43:50;;;;;;;11.15;2.63;;;;;;;;;;4976140;28;20041;-71
2022/05/20 07:46:17;;;;;;;7.22;2.80;;;;;;;;;;4976697;28;20054;-72
2022/05/20 07:48:43;;;;;;;10.23;3.00;;;;;;;;;;4975876;28;20497;-71
2022/05/20 07:51:11;;;;;;;5.75;3.13;;;;;;;;;;4975858;28;20054;-72
2022/05/20 07:53:40;;;;;;;8.50;2.70;;;;;;;;;;4967771;28;20047;-72
2022/05/20 07:56:06;;;;;;;7.43;2.75;;;;;;;;;;4956376;28;20051;-72
2022/05/20 07:58:34;;;;;;;8.20;2.78;;;;;;;;;;4957107;28;20130;-72
2022/05/20 08:01:02;;;;;;;8.98;3.30;;;;;;;;;;4956641;28;20039;-72
2022/05/20 08:06:14;;;;;;;7.68;3.40;;;;;;;;;;4965146;28;20046;-73
2022/05/20 08:08:40;;;;;;;7.60;2.80;;;;;;;;;;4961871;28;20034;-72
2022/05/20 08:11:06;;;;;;;6.95;2.80;;;;;;;;;;4976627;28;20046;-73
2022/05/20 08:13:33;;;;;;;8.23;2.72;;;;;;;;;;4965578;28;20043;-73
2022/05/20 08:15:59;;;;;;;7.30;2.70;;;;;;;;;;4957312;29;20073;-73
2022/05/20 08:18:25;;;;;;;6.20;2.72;;;;;;;;;;4956710;29;20050;-74
2022/05/20 08:20:52;;;;;;;9.07;3.42;;;;;;;;;;4956782;29;20053;-73
2022/05/20 08:23:18;;;;;;;6.50;3.80;;;;;;;;;;4955038;28;20125;-73
2022/05/20 08:25:44;;;;;;;6.57;2.67;;;;;;;;;;4970279;28;20073;-74
2022/05/20 08:28:10;;;;;;;7.45;2.78;;;;;;;;;;4971144;28;20050;-71
2022/05/20 08:30:36;;;;;;;6.78;3.30;;;;;;;;;;4963199;28;20073;-74
2022/05/20 08:33:03;;;;;;;5.93;2.90;;;;;;;;;;4975606;28;20097;-74
2022/05/20 08:35:29;;;;;;;5.40;2.63;;;;;;;;;;4974953;28;20054;-73
2022/05/20 08:37:55;;;;;;;8.88;3.13;;;;;;;;;;4970155;28;20046;-73
2022/05/20 08:40:27;;;;;;;8.00;2.75;;;;;;;;;;4971018;28;20038;-73
2022/05/20 08:42:54;;;;;;;7.47;3.13;;;;;;;;;;4975859;28;20042;-73
2022/05/20 08:45:22;;;;;;;7.20;2.75;;;;;;;;;;4975486;28;20075;-74
2022/05/20 08:47:49;;;;;;;9.25;3.25;;;;;;;;;;4973559;28;20043;-73
2022/05/20 08:50:23;;;;;;;8.23;2.90;;;;;;;;;;4976203;28;20093;-74
2022/05/20 08:52:51;;;;;;;8.95;3.03;;;;;;;;;;4963530;28;20118;-74
2022/05/20 08:55:17;;;;;;;6.32;3.85;;;;;;;;;;4973911;28;20110;-73
2022/05/20 08:57:49;;;;;;;5.22;2.88;;;;;;;;;;4972109;28;20046;-73
2022/05/20 09:00:15;;;;;;;6.93;3.00;;;;;;;;;;4956837;29;20493;-73
2022/05/20 09:02:42;;;;;;;8.40;2.97;;;;;;;;;;4965053;28;20119;-72
2022/05/20 09:05:23;;;;;;;3.88;2.42;;;;;;;;;;4975588;28;20039;-73
2022/05/20 09:07:54;;;;;;;6.28;3.10;;;;;;;;;;4974857;28;20133;-73
2022/05/20 09:10:34;;;;;;;9.65;3.45;;;;;;;;;;4965594;28;20054;-74
2022/05/20 09:13:08;;;;;;;7.30;2.90;;;;;;;;;;4966447;28;20046;-75
2022/05/20 09:15:47;;;;;;;6.97;2.95;;;;;;;;;;4976480;28;20063;-74
2022/05/20 09:18:17;;;;;;;6.00;2.65;;;;;;;;;;4957601;28;20119;-73
2022/05/20 09:20:48;;;;;;;9.13;4.25;;;;;;;;;;4959246;29;20053;-74
2022/05/20 09:23:20;;;;;;;6.43;3.33;;;;;;;;;;4958840;29;20122;-74
2022/05/20 09:25:55;;;;;;;7.43;3.17;;;;;;;;;;4961054;28;20047;-74
2022/05/20 09:28:29;;;;;;;10.05;3.28;;;;;;;;;;4967654;28;20043;-75
2022/05/20 09:31:06;;;;;;;5.05;3.20;;;;;;;;;;4959081;29;20137;-75
2022/05/20 09:33:34;;;;;;;13.00;3.25;;;;;;;;;;4974428;28;20521;-75
2022/05/20 09:36:02;;;;;;;6.70;2.70;;;;;;;;;;4970989;28;20458;-75
2022/05/20 09:38:37;;;;;;;6.13;2.97;;;;;;;;;;4972691;28;20039;-75
2022/05/20 09:41:12;;;;;;;8.73;3.30;;;;;;;;;;4964414;28;20047;-74
2022/05/20 09:43:40;;;;;;;10.70;2.97;;;;;;;;;;4959055;28;20058;-74
2022/05/20 09:46:08;;;;;;;6.28;3.00;;;;;;;;;;4976710;28;20057;-73
2022/05/20 09:48:37;;;;;;;8.00;3.03;;;;;;;;;;4959903;28;20042;-74
2022/05/20 09:51:05;;;;;;;9.95;3.33;;;;;;;;;;4958467;28;20403;-73
2022/05/20 09:53:36;;;;;;;6.70;3.03;;;;;;;;;;4962148;28;20124;-73
2022/05/20 09:56:20;;;;;;;9.05;3.10;;;;;;;;;;4959192;28;20039;-73
2022/05/20 09:59:06;;;;;;;6.32;3.00;;;;;;;;;;4954487;28;20373;-73
2022/05/20 10:01:33;;;;;;;7.55;2.97;;;;;;;;;;4948360;29;20050;-73
2022/05/20 10:04:02;;;;;;;5.88;3.35;;;;;;;;;;4959501;28;20062;-74
2022/05/20 10:06:28;;;;;;;8.90;3.00;;;;;;;;;;4960743;28;20047;-74
2022/05/20 10:09:13;;;;;;;9.15;3.30;;;;;;;;;;4958001;29;20050;-73
2022/05/20 10:11:48;;;;;;;7.07;2.83;;;;;;;;;;4957871;29;20043;-73
2022/05/20 10:14:17;;;;;;;10.77;2.75;;;;;;;;;;4961156;28;20038;-74
2022/05/20 10:16:46;;;;;;;9.55;2.90;;;;;;;;;;4973168;28;20042;-74
2022/05/20 10:19:41;;;;;;;11.00;3.13;;;;;;;;;;4973962;28;20046;-74
2022/05/20 10:22:08;;;;;;;8.63;3.30;;;;;;;;;;4976652;28;20046;-73
2022/05/20 10:24:52;;;;;;;9.43;2.97;;;;;;;;;;4959443;28;20047;-73
2022/05/20 10:27:22;;;;;;;7.13;2.92;;;;;;;;;;4973767;28;20122;-73
2022/05/20 10:32:52;;;;;;;9.68;2.88;;;;;;;;;;4975969;28;20026;-73
2022/05/20 10:35:20;;;;;;;5.80;2.80;;;;;;;;;;4976778;28;20139;-72
2022/05/20 10:38:01;;;;;;;5.97;3.08;;;;;;;;;;4976726;28;20054;-73
2022/05/20 10:40:47;;;;;;;8.95;2.72;;;;;;;;;;4976120;28;20113;-72
2022/05/20 10:43:14;;;;;;;7.57;2.78;;;;;;;;;;4939506;28;20422;-73
2022/05/20 10:48:35;;;;;;;6.43;2.88;;;;;;;;;;4975759;28;20054;-73
2022/05/20 10:51:08;;;;;;;7.60;2.97;;;;;;;;;;4989115;28;20537;-72
2022/05/20 10:53:46;;;;;;;10.68;3.22;;;;;;;;;;4966932;28;20055;-73
2022/05/20 10:56:30;;;;;;;10.10;3.17;;;;;;;;;;4976205;28;20113;-73
2022/05/20 10:59:05;;;;;;;5.97;3.25;;;;;;;;;;4968462;28;20066;-73
2022/05/20 11:01:47;;;;;;;6.65;3.28;;;;;;;;;;4975796;28;20182;-73
2022/05/20 11:04:28;;;;;;;11.48;3.17;;;;;;;;;;4975712;28;20042;-73
2022/05/20 11:07:10;;;;;;;9.73;3.22;;;;;;;;;;4976190;28;20502;-73
2022/05/20 11:09:36;;;;;;;10.52;3.50;;;;;;;;;;4974253;28;20051;-73
2022/05/20 11:12:06;;;;;;;7.35;2.85;;;;;;;;;;4975884;28;20051;-73
2022/05/20 11:14:47;;;;;;;8.68;2.80;;;;;;;;;;4960903;28;20097;-72
2022/05/20 11:17:25;;;;;;;9.07;3.08;;;;;;;;;;4976512;28;20058;-74
2022/05/20 11:20:08;;;;;;;9.45;3.20;;;;;;;;;;4977114;28;20049;-73
2022/05/20 11:22:34;;;;;;;5.80;2.58;;;;;;;;;;4976525;28;20505;-73
2022/05/20 11:25:19;;;;;;;6.18;3.38;;;;;;;;;;4976519;28;20085;-73
2022/05/20 11:27:54;;;;;;;8.13;3.05;;;;;;;;;;4976937;28;20117;-73
2022/05/20 11:30:24;;;;;;;6.10;2.65;;;;;;;;;;4977218;28;20046;-73
2022/05/20 11:33:09;;;;;;;7.82;2.90;;;;;;;;;;4975924;28;20130;-73
2022/05/20 11:35:47;;;;;;;6.72;3.13;;;;;;;;;;4976760;28;20085;-73
2022/05/20 11:38:35;;;;;;;7.07;2.85;;;;;;;;;;4976308;28;20494;-73
2022/05/20 11:41:22;;;;;;;7.68;2.83;;;;;;;;;;4977700;28;20057;-73
2022/05/20 11:44:07;;;;;;;6.63;2.95;;;;;;;;;;4976088;28;20059;-74
2022/05/20 11:46:51;;;;;;;5.60;2.67;;;;;;;;;;4976007;28;20039;-73
2022/05/20 11:49:23;;;;;;;4.80;2.35;;;;;;;;;;4974977;28;20051;-73
2022/05/20 11:52:04;;;;;;;7.90;2.80;;;;;;;;;;4974049;28;20050;-73
2022/05/20 11:54:34;;;;;;;7.25;2.92;;;;;;;;;;4975978;28;20121;-73
2022/05/20 11:57:09;;;;;;;7.78;3.00;;;;;;;;;;4976192;28;20109;-73
2022/05/20 11:59:55;;;;;;;4.85;2.90;;;;;;;;;;4976028;28;20146;-73
2022/05/20 12:02:23;;;;;;;16.00;3.85;;;;;;;;;;4976110;28;20047;-73
2022/05/20 12:04:50;;;;;;;9.52;3.47;;;;;;;;;;4976228;28;20035;-73
2022/05/20 12:07:18;;;;;;;8.20;3.13;;;;;;;;;;4975609;28;20141;-73
2022/05/20 12:09:48;;;;;;;10.07;3.35;;;;;;;;;;4976373;28;20042;-74
2022/05/20 12:12:17;;;;;;;5.25;2.58;;;;;;;;;;4976137;28;20129;-73
2022/05/20 12:15:02;;;;;;;2.95;2.55;;;;;;;;;;4975819;28;20041;-74
2022/05/20 12:17:33;;;;;;;7.72;2.63;;;;;;;;;;4976241;28;20085;-73
2022/05/20 12:25:42;;;;;;;11.68;3.15;;;;;;;;;;4975527;28;20037;-73
2022/05/20 12:28:08;;;;;;;6.20;2.33;;;;;;;;;;4976526;28;20089;-73
2022/05/20 12:30:39;;;;;;;10.32;2.75;;;;;;;;;;4975588;28;20517;-73
2022/05/20 12:33:22;;;;;;;5.88;2.75;;;;;;;;;;4975780;28;20039;-73
2022/05/20 12:36:17;;;;;;;5.00;2.40;;;;;;;;;;4975436;28;20382;-73
2022/05/20 12:38:43;;;;;;;8.63;3.03;;;;;;;;;;4975922;28;20078;-73
2022/05/20 12:41:32;;;;;;;5.60;2.67;;;;;;;;;;4975845;28;20078;-73
2022/05/20 12:44:01;;;;;;;6.15;2.42;;;;;;;;;;4949151;28;20042;-73
2022/05/20 12:46:39;;;;;;;4.30;2.33;;;;;;;;;;4980342;28;20042;-73
2022/05/20 12:49:05;;;;;;;3.78;2.47;;;;;;;;;;4980212;28;20047;-73
2022/05/20 12:51:40;;;;;;;5.38;2.70;;;;;;;;;;4979155;28;20509;-73
2022/05/20 12:54:14;;;;;;;4.65;2.50;;;;;;;;;;4979600;28;20106;-73
2022/05/20 12:56:40;;;;;;;4.93;2.38;;;;;;;;;;4979661;28;20039;-73
2022/05/20 12:59:16;;;;;;;6.45;2.25;;;;;;;;;;4979484;28;20042;-73
2022/05/20 13:01:44;;;;;;;6.55;2.45;;;;;;;;;;4979628;28;20043;-73
2022/05/20 13:04:13;;;;;;;6.47;2.20;;;;;;;;;;4979429;28;20038;-74
2022/05/20 13:06:43;;;;;;;6.55;2.25;;;;;;;;;;4979216;28;20058;-73
2022/05/20 13:09:09;;;;;;;7.82;2.40;;;;;;;;;;4978865;28;20174;-73
2022/05/20 13:11:43;;;;;;;7.43;2.53;;;;;;;;;;4978690;28;20081;-73
2022/05/20 13:14:11;;;;;;;10.55;2.28;;;;;;;;;;4978950;28;20042;-73
2022/05/20 13:16:39;;;;;;;9.25;2.30;;;;;;;;;;4979120;28;20058;-73
2022/05/20 13:19:10;;;;;;;4.95;2.25;;;;;;;;;;4978574;28;20095;-74
2022/05/20 13:21:42;;;;;;;6.82;2.42;;;;;;;;;;4978907;28;20070;-73
2022/05/20 13:24:25;;;;;;;3.15;2.33;;;;;;;;;;4978785;28;20053;-73
2022/05/20 13:27:03;;;;;;;5.78;2.42;;;;;;;;;;4978743;28;20406;-73
2022/05/20 13:29:29;;;;;;;7.47;2.70;;;;;;;;;;4978950;28;20054;-74
2022/05/20 13:32:14;;;;;;;6.47;2.22;;;;;;;;;;4978803;28;20105;-74
2022/05/20 13:34:41;;;;;;;6.53;2.55;;;;;;;;;;4978399;28;20031;-74
2022/05/20 13:37:10;;;;;;;8.30;2.63;;;;;;;;;;4978291;28;20043;-74
2022/05/20 13:39:36;;;;;;;2.78;2.10;;;;;;;;;;4978785;28;20101;-74
2022/05/20 13:42:03;;;;;;;8.85;2.70;;;;;;;;;;4978184;28;20463;-73
2022/05/20 13:44:29;;;;;;;7.65;2.40;;;;;;;;;;4978898;28;20030;-73
2022/05/20 13:49:45;;;;;;;5.30;2.17;;;;;;;;;;4932471;28;20051;-73
2022/05/20 13:52:13;;;;;;;5.80;2.40;;;;;;;;;;4977865;28;20051;-74
2022/05/20 13:54:43;;;;;;;6.85;2.20;;;;;;;;;;4977900;28;20031;-73
2022/05/20 13:57:14;;;;;;;7.00;2.33;;;;;;;;;;4977315;28;20038;-73
2022/05/20 13:59:41;;;;;;;;;;;;;;;;;;4978282;28;20074;-74
2022/05/20 14:02:07;;;;;;;6.35;2.17;;;;;;;;;;4978074;28;19910;-73
2022/05/20 14:04:45;;;;;;;6.22;2.08;;;;;;;;;;4978600;28;20035;-74
2022/05/20 14:07:17;;;;;;;5.97;2.40;;;;;;;;;;4978177;28;20086;-73
2022/05/20 14:09:45;;;;;;;5.53;2.38;;;;;;;;;;4977874;28;20038;-73
2022/05/20 14:12:19;;;;;;;7.80;2.40;;;;;;;;;;4977908;28;20081;-73
2022/05/20 14:14:51;;;;;;;7.15;1.90;;;;;;;;;;4978179;28;20046;-73
2022/05/20 14:17:17;;;;;;;6.38;2.58;;;;;;;;;;4978231;28;20050;-74
2022/05/20 14:19:45;;;;;;;3.92;2.35;;;;;;;;;;4978099;28;20482;-73
2022/05/20 14:22:17;;;;;;;4.25;2.20;;;;;;;;;;4977855;28;20074;-74
2022/05/20 14:24:52;;;;;;;6.30;2.38;;;;;;;;;;4978603;28;20042;-73
2022/05/20 14:27:38;;;;;;;8.15;2.42;;;;;;;;;;4977788;28;20057;-73
2022/05/20 14:30:34;;;;;;;8.80;2.60;;;;;;;;;;4979188;28;20043;-73
2022/05/20 14:33:14;;;;;;;7.00;2.53;;;;;;;;;;4964835;28;20043;-74
2022/05/20 14:35:43;;;;;;;6.33;2.43;;;;;;;;;;4978133;28;20054;-73
2022/05/20 14:38:12;;;;;;;12.82;3.10;;;;;;;;;;4977334;28;20125;-74
2022/05/20 14:40:40;;;;;;;6.85;2.85;;;;;;;;;;4977369;28;20046;-73
2022/05/20 14:43:07;;;;;;;5.20;2.25;;;;;;;;;;4977667;28;20048;-73
2022/05/20 14:45:36;;;;;;;9.40;2.53;;;;;;;;;;4977615;28;20047;-73
2022/05/20 14:48:10;;;;;;;6.55;2.15;;;;;;;;;;4977598;28;20058;-74
2022/05/20 14:50:37;;;;;;;4.65;2.28;;;;;;;;;;4977432;28;20473;-73
2022/05/20 14:53:05;;;;;;;4.28;2.55;;;;;;;;;;4977280;28;20097;-74
2022/05/20 14:55:39;;;;;;;4.85;2.40;;;;;;;;;;4978127;28;20419;-73
2022/05/20 14:58:15;;;;;;;4.10;2.75;;;;;;;;;;4976829;28;20053;-74
2022/05/20 15:00:57;;;;;;;7.07;2.60;;;;;;;;;;4976993;28;20565;-73
2022/05/20 15:03:25;;;;;;;6.65;2.75;;;;;;;;;;4977834;28;20042;-73
2022/05/20 15:05:52;;;;;;;4.45;2.30;;;;;;;;;;4977098;28;20101;-73
2022/05/20 15:08:19;;;;;;;7.68;2.40;;;;;;;;;;4976467;28;20117;-73
2022/05/20 15:11:11;;;;;;;5.95;2.42;;;;;;;;;;4977024;28;20050;-74
2022/05/20 15:13:38;;;;;;;11.13;2.40;;;;;;;;;;4974000;28;20054;-74
2022/05/20 15:16:04;;;;;;;7.68;2.55;;;;;;;;;;4977317;28;20053;-74
2022/05/20 15:18:30;;;;;;;5.43;2.22;;;;;;;;;;4977199;28;20066;-73
2022/05/20 15:20:58;;;;;;;5.82;2.65;;;;;;;;;;4976731;28;20046;-73
2022/05/20 15:23:28;;;;;;;4.75;2.22;;;;;;;;;;4976216;28;20059;-74
2022/05/20 15:25:54;;;;;;;3.10;2.22;;;;;;;;;;4977094;28;20039;-74
2022/05/20 15:36:44;;;;;;;5.22;2.45;;;;;;;;;;4930800;28;20442;-73
2022/05/20 15:39:13;;;;;;;4.75;2.22;;;;;;;;;;4976049;28;20049;-74